sensor_id;sensor_type;location;lat;lon;timestamp;P1;durP1;ratioP1;P2;durP2;ratioP2
56718;SDS011;42597;40.636;0.278;2022-07-01T00:01:46;2.00;;;1.40;;
56718;SDS011;42597;40.636;0.278;2022-07-01T00:04:12;3.67;;;1.08;;
56718;SDS011;42597;40.636;0.278;2022-07-01T00:06:38;1.33;;;0.85;;
56718;SDS011;42597;40.636;0.278;2022-07-01T00:09:04;4.45;;;1.52;;
56718;SDS011;42597;40.636;0.278;2022-07-01T00:11:30;1.65;;;1.00;;
56718;SDS011;42597;40.636;0.278;2022-07-01T00:13:56;6.70;;;1.42;;
56718;SDS011;42597;40.636;0.278;2022-07-01T00:16:22;1.88;;;1.00;;
56718;SDS011;42597;40.636;0.278;2022-07-01T00:18:47;4.28;;;1.20;;
56718;SDS011;42597;40.636;0.278;2022-07-01T00:21:13;2.72;;;1.45;;
56718;SDS011;42597;40.636;0.278;2022-07-01T00:23:39;2.60;;;1.30;;
56718;SDS011;42597;40.636;0.278;2022-07-01T00:26:05;3.95;;;1.33;;
56718;SDS011;42597;40.636;0.278;2022-07-01T00:28:30;3.22;;;1.55;;
56718;SDS011;42597;40.636;0.278;2022-07-01T00:30:56;3.13;;;1.92;;
56718;SDS011;42597;40.636;0.278;2022-07-01T00:33:21;3.67;;;1.20;;
56718;SDS011;42597;40.636;0.278;2022-07-01T00:35:47;3.45;;;1.65;;
56718;SDS011;42597;40.636;0.278;2022-07-01T00:38:12;1.55;;;0.88;;
56718;SDS011;42597;40.636;0.278;2022-07-01T00:40:38;3.38;;;1.00;;
56718;SDS011;42597;40.636;0.278;2022-07-01T00:43:03;3.42;;;1.50;;
56718;SDS011;42597;40.636;0.278;2022-07-01T00:45:30;3.03;;;1.08;;
56718;SDS011;42597;40.636;0.278;2022-07-01T00:47:55;4.82;;;1.00;;
56718;SDS011;42597;40.636;0.278;2022-07-01T00:50:22;1.35;;;0.85;;
56718;SDS011;42597;40.636;0.278;2022-07-01T00:52:48;6.82;;;1.17;;
56718;SDS011;42597;40.636;0.278;2022-07-01T00:55:14;3.67;;;0.90;;
56718;SDS011;42597;40.636;0.278;2022-07-01T00:57:41;0.90;;;0.70;;
56718;SDS011;42597;40.636;0.278;2022-07-01T01:00:08;1.88;;;1.30;;
56718;SDS011;42597;40.636;0.278;2022-07-01T01:02:36;1.65;;;0.82;;
56718;SDS011;42597;40.636;0.278;2022-07-01T01:05:05;3.85;;;1.15;;
56718;SDS011;42597;40.636;0.278;2022-07-01T01:07:33;1.85;;;0.90;;
56718;SDS011;42597;40.636;0.278;2022-07-01T01:09:59;3.35;;;1.60;;
56718;SDS011;42597;40.636;0.278;2022-07-01T01:12:27;1.63;;;0.70;;
56718;SDS011;42597;40.636;0.278;2022-07-01T01:14:53;5.30;;;1.10;;
56718;SDS011;42597;40.636;0.278;2022-07-01T01:17:18;5.22;;;1.35;;
56718;SDS011;42597;40.636;0.278;2022-07-01T01:19:46;3.88;;;1.67;;
56718;SDS011;42597;40.636;0.278;2022-07-01T01:22:14;1.05;;;0.60;;
56718;SDS011;42597;40.636;0.278;2022-07-01T01:27:06;3.22;;;0.90;;
56718;SDS011;42597;40.636;0.278;2022-07-01T01:29:32;2.72;;;1.27;;
56718;SDS011;42597;40.636;0.278;2022-07-01T01:31:59;2.35;;;1.00;;
56718;SDS011;42597;40.636;0.278;2022-07-01T01:34:25;2.70;;;1.25;;
56718;SDS011;42597;40.636;0.278;2022-07-01T01:36:51;2.05;;;0.90;;
56718;SDS011;42597;40.636;0.278;2022-07-01T01:39:16;1.48;;;0.75;;
56718;SDS011;42597;40.636;0.278;2022-07-01T01:41:43;1.70;;;0.50;;
56718;SDS011;42597;40.636;0.278;2022-07-01T01:44:10;3.13;;;1.10;;
56718;SDS011;42597;40.636;0.278;2022-07-01T01:46:35;1.92;;;1.10;;
56718;SDS011;42597;40.636;0.278;2022-07-01T01:49:02;1.20;;;0.75;;
56718;SDS011;42597;40.636;0.278;2022-07-01T01:51:28;3.90;;;1.17;;
56718;SDS011;42597;40.636;0.278;2022-07-01T01:53:54;2.80;;;1.00;;
56718;SDS011;42597;40.636;0.278;2022-07-01T01:56:21;2.63;;;0.73;;
56718;SDS011;42597;40.636;0.278;2022-07-01T01:58:46;2.08;;;1.08;;
56718;SDS011;42597;40.636;0.278;2022-07-01T02:01:12;3.38;;;0.80;;
56718;SDS011;42597;40.636;0.278;2022-07-01T02:03:39;2.13;;;0.80;;
56718;SDS011;42597;40.636;0.278;2022-07-01T02:06:06;2.17;;;0.88;;
56718;SDS011;42597;40.636;0.278;2022-07-01T02:08:34;0.80;;;0.65;;
56718;SDS011;42597;40.636;0.278;2022-07-01T02:11:00;2.00;;;0.70;;
56718;SDS011;42597;40.636;0.278;2022-07-01T02:13:26;1.67;;;1.00;;
56718;SDS011;42597;40.636;0.278;2022-07-01T02:15:52;3.03;;;1.30;;
56718;SDS011;42597;40.636;0.278;2022-07-01T02:18:17;1.83;;;0.80;;
56718;SDS011;42597;40.636;0.278;2022-07-01T02:20:43;1.17;;;0.80;;
56718;SDS011;42597;40.636;0.278;2022-07-01T02:23:09;1.98;;;1.00;;
56718;SDS011;42597;40.636;0.278;2022-07-01T02:25:34;1.73;;;0.85;;
56718;SDS011;42597;40.636;0.278;2022-07-01T02:28:01;2.03;;;1.00;;
56718;SDS011;42597;40.636;0.278;2022-07-01T02:30:27;1.05;;;0.63;;
56718;SDS011;42597;40.636;0.278;2022-07-01T02:32:53;1.50;;;0.95;;
56718;SDS011;42597;40.636;0.278;2022-07-01T02:35:19;1.98;;;0.82;;
56718;SDS011;42597;40.636;0.278;2022-07-01T02:37:45;1.52;;;0.70;;
56718;SDS011;42597;40.636;0.278;2022-07-01T02:40:11;1.30;;;0.70;;
56718;SDS011;42597;40.636;0.278;2022-07-01T02:42:38;5.43;;;1.40;;
56718;SDS011;42597;40.636;0.278;2022-07-01T02:45:05;2.55;;;1.20;;
56718;SDS011;42597;40.636;0.278;2022-07-01T02:50:05;1.58;;;0.73;;
56718;SDS011;42597;40.636;0.278;2022-07-01T02:52:35;1.83;;;1.08;;
56718;SDS011;42597;40.636;0.278;2022-07-01T02:55:05;1.73;;;0.80;;
56718;SDS011;42597;40.636;0.278;2022-07-01T02:57:33;2.47;;;1.25;;
56718;SDS011;42597;40.636;0.278;2022-07-01T02:59:59;1.80;;;0.88;;
56718;SDS011;42597;40.636;0.278;2022-07-01T03:02:25;2.72;;;0.93;;
56718;SDS011;42597;40.636;0.278;2022-07-01T03:04:51;0.70;;;0.60;;
56718;SDS011;42597;40.636;0.278;2022-07-01T03:07:18;2.05;;;0.88;;
56718;SDS011;42597;40.636;0.278;2022-07-01T03:09:45;2.40;;;0.93;;
56718;SDS011;42597;40.636;0.278;2022-07-01T03:12:11;4.45;;;0.88;;
56718;SDS011;42597;40.636;0.278;2022-07-01T03:14:55;2.42;;;1.05;;
56718;SDS011;42597;40.636;0.278;2022-07-01T03:17:26;1.63;;;0.70;;
56718;SDS011;42597;40.636;0.278;2022-07-01T03:19:53;1.52;;;0.70;;
56718;SDS011;42597;40.636;0.278;2022-07-01T03:22:20;1.52;;;0.88;;
56718;SDS011;42597;40.636;0.278;2022-07-01T03:24:49;2.72;;;1.02;;
56718;SDS011;42597;40.636;0.278;2022-07-01T03:27:16;1.70;;;1.13;;
56718;SDS011;42597;40.636;0.278;2022-07-01T03:29:42;2.97;;;0.98;;
56718;SDS011;42597;40.636;0.278;2022-07-01T03:32:08;4.57;;;0.95;;
56718;SDS011;42597;40.636;0.278;2022-07-01T03:34:37;1.98;;;0.88;;
56718;SDS011;42597;40.636;0.278;2022-07-01T03:37:05;1.90;;;0.88;;
56718;SDS011;42597;40.636;0.278;2022-07-01T03:39:31;1.73;;;0.93;;
56718;SDS011;42597;40.636;0.278;2022-07-01T03:41:57;0.77;;;0.63;;
56718;SDS011;42597;40.636;0.278;2022-07-01T03:44:23;1.05;;;0.60;;
56718;SDS011;42597;40.636;0.278;2022-07-01T03:46:48;1.98;;;0.70;;
56718;SDS011;42597;40.636;0.278;2022-07-01T03:49:14;1.35;;;0.85;;
56718;SDS011;42597;40.636;0.278;2022-07-01T03:51:39;2.47;;;1.10;;
56718;SDS011;42597;40.636;0.278;2022-07-01T03:54:05;0.93;;;0.68;;
56718;SDS011;42597;40.636;0.278;2022-07-01T03:56:49;1.15;;;0.82;;
56718;SDS011;42597;40.636;0.278;2022-07-01T03:59:14;7.53;;;1.65;;
56718;SDS011;42597;40.636;0.278;2022-07-01T04:01:40;1.60;;;0.90;;
56718;SDS011;42597;40.636;0.278;2022-07-01T04:04:05;2.05;;;1.02;;
56718;SDS011;42597;40.636;0.278;2022-07-01T04:06:31;2.92;;;0.98;;
56718;SDS011;42597;40.636;0.278;2022-07-01T04:08:56;1.77;;;0.80;;
56718;SDS011;42597;40.636;0.278;2022-07-01T04:11:22;1.70;;;0.82;;
56718;SDS011;42597;40.636;0.278;2022-07-01T04:13:48;2.38;;;0.60;;
56718;SDS011;42597;40.636;0.278;2022-07-01T04:16:17;1.15;;;0.75;;
56718;SDS011;42597;40.636;0.278;2022-07-01T04:18:43;6.82;;;1.10;;
56718;SDS011;42597;40.636;0.278;2022-07-01T04:21:09;1.50;;;0.60;;
56718;SDS011;42597;40.636;0.278;2022-07-01T04:23:53;1.38;;;0.60;;
56718;SDS011;42597;40.636;0.278;2022-07-01T04:26:20;2.08;;;0.90;;
56718;SDS011;42597;40.636;0.278;2022-07-01T04:28:45;3.17;;;0.93;;
56718;SDS011;42597;40.636;0.278;2022-07-01T04:31:11;2.88;;;1.45;;
56718;SDS011;42597;40.636;0.278;2022-07-01T04:33:36;2.17;;;1.02;;
56718;SDS011;42597;40.636;0.278;2022-07-01T04:36:02;2.05;;;1.05;;
56718;SDS011;42597;40.636;0.278;2022-07-01T04:38:27;1.23;;;0.68;;
56718;SDS011;42597;40.636;0.278;2022-07-01T04:40:53;3.58;;;0.70;;
56718;SDS011;42597;40.636;0.278;2022-07-01T04:43:37;2.78;;;0.95;;
56718;SDS011;42597;40.636;0.278;2022-07-01T04:46:03;1.20;;;0.75;;
56718;SDS011;42597;40.636;0.278;2022-07-01T04:48:28;0.70;;;0.60;;
56718;SDS011;42597;40.636;0.278;2022-07-01T04:50:54;1.40;;;0.88;;
56718;SDS011;42597;40.636;0.278;2022-07-01T04:53:19;5.10;;;1.00;;
56718;SDS011;42597;40.636;0.278;2022-07-01T04:55:45;1.42;;;0.75;;
56718;SDS011;42597;40.636;0.278;2022-07-01T04:58:12;1.25;;;0.82;;
56718;SDS011;42597;40.636;0.278;2022-07-01T05:00:38;2.42;;;0.98;;
56718;SDS011;42597;40.636;0.278;2022-07-01T05:03:03;3.13;;;1.15;;
56718;SDS011;42597;40.636;0.278;2022-07-01T05:05:29;0.55;;;0.40;;
56718;SDS011;42597;40.636;0.278;2022-07-01T05:07:54;2.30;;;0.75;;
56718;SDS011;42597;40.636;0.278;2022-07-01T05:10:19;1.42;;;0.70;;
56718;SDS011;42597;40.636;0.278;2022-07-01T05:12:45;1.40;;;0.70;;
56718;SDS011;42597;40.636;0.278;2022-07-01T05:15:10;2.45;;;0.52;;
56718;SDS011;42597;40.636;0.278;2022-07-01T05:17:36;1.92;;;0.70;;
56718;SDS011;42597;40.636;0.278;2022-07-01T05:20:21;2.13;;;0.85;;
56718;SDS011;42597;40.636;0.278;2022-07-01T05:23:05;1.30;;;0.80;;
56718;SDS011;42597;40.636;0.278;2022-07-01T05:25:31;3.15;;;0.70;;
56718;SDS011;42597;40.636;0.278;2022-07-01T05:27:56;3.20;;;1.42;;
56718;SDS011;42597;40.636;0.278;2022-07-01T05:30:22;2.15;;;0.88;;
56718;SDS011;42597;40.636;0.278;2022-07-01T05:32:47;1.20;;;0.68;;
56718;SDS011;42597;40.636;0.278;2022-07-01T05:35:13;1.77;;;0.75;;
56718;SDS011;42597;40.636;0.278;2022-07-01T05:37:39;2.97;;;0.77;;
56718;SDS011;42597;40.636;0.278;2022-07-01T05:40:06;2.92;;;1.17;;
56718;SDS011;42597;40.636;0.278;2022-07-01T05:42:32;1.35;;;0.75;;
56718;SDS011;42597;40.636;0.278;2022-07-01T05:44:58;1.20;;;0.60;;
56718;SDS011;42597;40.636;0.278;2022-07-01T05:47:23;0.88;;;0.45;;
56718;SDS011;42597;40.636;0.278;2022-07-01T05:49:49;1.48;;;0.65;;
56718;SDS011;42597;40.636;0.278;2022-07-01T05:52:14;1.60;;;0.82;;
56718;SDS011;42597;40.636;0.278;2022-07-01T05:54:40;3.30;;;0.90;;
56718;SDS011;42597;40.636;0.278;2022-07-01T05:57:05;2.80;;;1.55;;
56718;SDS011;42597;40.636;0.278;2022-07-01T05:59:31;1.83;;;0.90;;
56718;SDS011;42597;40.636;0.278;2022-07-01T06:01:56;1.15;;;0.60;;
56718;SDS011;42597;40.636;0.278;2022-07-01T06:04:22;3.92;;;1.00;;
56718;SDS011;42597;40.636;0.278;2022-07-01T06:06:47;3.15;;;1.35;;
56718;SDS011;42597;40.636;0.278;2022-07-01T06:09:13;1.98;;;0.70;;
56718;SDS011;42597;40.636;0.278;2022-07-01T06:11:38;1.75;;;0.70;;
56718;SDS011;42597;40.636;0.278;2022-07-01T06:14:04;2.22;;;1.08;;
56718;SDS011;42597;40.636;0.278;2022-07-01T06:16:29;3.00;;;1.05;;
56718;SDS011;42597;40.636;0.278;2022-07-01T06:18:55;1.73;;;0.77;;
56718;SDS011;42597;40.636;0.278;2022-07-01T06:21:20;1.58;;;0.82;;
56718;SDS011;42597;40.636;0.278;2022-07-01T06:23:46;0.95;;;0.60;;
56718;SDS011;42597;40.636;0.278;2022-07-01T06:26:12;2.35;;;1.00;;
56718;SDS011;42597;40.636;0.278;2022-07-01T06:28:38;6.85;;;1.23;;
56718;SDS011;42597;40.636;0.278;2022-07-01T06:31:03;6.63;;;1.50;;
56718;SDS011;42597;40.636;0.278;2022-07-01T06:33:29;1.40;;;0.85;;
56718;SDS011;42597;40.636;0.278;2022-07-01T06:35:56;1.65;;;0.93;;
56718;SDS011;42597;40.636;0.278;2022-07-01T06:38:22;1.08;;;0.88;;
56718;SDS011;42597;40.636;0.278;2022-07-01T06:40:48;1.23;;;0.80;;
56718;SDS011;42597;40.636;0.278;2022-07-01T06:43:33;4.15;;;1.20;;
56718;SDS011;42597;40.636;0.278;2022-07-01T06:46:00;4.70;;;1.15;;
56718;SDS011;42597;40.636;0.278;2022-07-01T06:48:26;3.95;;;1.58;;
56718;SDS011;42597;40.636;0.278;2022-07-01T06:50:52;7.15;;;1.30;;
56718;SDS011;42597;40.636;0.278;2022-07-01T06:53:18;5.50;;;1.27;;
56718;SDS011;42597;40.636;0.278;2022-07-01T06:55:43;1.67;;;1.10;;
56718;SDS011;42597;40.636;0.278;2022-07-01T06:58:09;4.25;;;1.40;;
56718;SDS011;42597;40.636;0.278;2022-07-01T07:00:35;5.47;;;0.93;;
56718;SDS011;42597;40.636;0.278;2022-07-01T07:03:01;2.47;;;0.77;;
56718;SDS011;42597;40.636;0.278;2022-07-01T07:05:27;6.15;;;1.65;;
56718;SDS011;42597;40.636;0.278;2022-07-01T07:10:21;6.80;;;2.80;;
56718;SDS011;42597;40.636;0.278;2022-07-01T07:12:47;4.75;;;2.28;;
56718;SDS011;42597;40.636;0.278;2022-07-01T07:15:12;5.05;;;2.08;;
56718;SDS011;42597;40.636;0.278;2022-07-01T07:17:38;5.40;;;1.60;;
56718;SDS011;42597;40.636;0.278;2022-07-01T07:20:03;2.05;;;1.45;;
56718;SDS011;42597;40.636;0.278;2022-07-01T07:22:29;3.80;;;1.70;;
56718;SDS011;42597;40.636;0.278;2022-07-01T07:24:55;2.10;;;1.42;;
56718;SDS011;42597;40.636;0.278;2022-07-01T07:27:20;3.72;;;1.88;;
56718;SDS011;42597;40.636;0.278;2022-07-01T07:29:46;3.70;;;1.77;;
56718;SDS011;42597;40.636;0.278;2022-07-01T07:32:11;4.15;;;1.85;;
56718;SDS011;42597;40.636;0.278;2022-07-01T07:34:37;4.28;;;1.73;;
56718;SDS011;42597;40.636;0.278;2022-07-01T07:37:03;3.67;;;1.67;;
56718;SDS011;42597;40.636;0.278;2022-07-01T07:39:28;3.95;;;1.55;;
56718;SDS011;42597;40.636;0.278;2022-07-01T07:41:54;2.85;;;1.63;;
56718;SDS011;42597;40.636;0.278;2022-07-01T07:44:19;3.80;;;1.70;;
56718;SDS011;42597;40.636;0.278;2022-07-01T07:46:45;3.25;;;1.48;;
56718;SDS011;42597;40.636;0.278;2022-07-01T07:49:10;3.63;;;1.13;;
56718;SDS011;42597;40.636;0.278;2022-07-01T07:51:36;3.13;;;1.45;;
56718;SDS011;42597;40.636;0.278;2022-07-01T07:54:01;2.78;;;1.23;;
56718;SDS011;42597;40.636;0.278;2022-07-01T07:56:28;2.92;;;1.30;;
56718;SDS011;42597;40.636;0.278;2022-07-01T07:58:54;3.80;;;1.73;;
56718;SDS011;42597;40.636;0.278;2022-07-01T08:01:19;2.20;;;1.23;;
56718;SDS011;42597;40.636;0.278;2022-07-01T08:03:45;2.60;;;1.30;;
56718;SDS011;42597;40.636;0.278;2022-07-01T08:06:11;2.60;;;1.33;;
56718;SDS011;42597;40.636;0.278;2022-07-01T08:08:37;4.03;;;1.50;;
56718;SDS011;42597;40.636;0.278;2022-07-01T08:11:02;4.60;;;1.48;;
56718;SDS011;42597;40.636;0.278;2022-07-01T08:13:28;2.22;;;1.35;;
56718;SDS011;42597;40.636;0.278;2022-07-01T08:15:54;5.25;;;1.50;;
56718;SDS011;42597;40.636;0.278;2022-07-01T08:18:20;4.75;;;1.73;;
56718;SDS011;42597;40.636;0.278;2022-07-01T08:20:46;3.40;;;1.75;;
56718;SDS011;42597;40.636;0.278;2022-07-01T08:23:12;8.70;;;2.78;;
56718;SDS011;42597;40.636;0.278;2022-07-01T08:25:38;6.88;;;2.95;;
56718;SDS011;42597;40.636;0.278;2022-07-01T08:28:04;2.33;;;1.17;;
56718;SDS011;42597;40.636;0.278;2022-07-01T08:30:29;3.53;;;1.50;;
56718;SDS011;42597;40.636;0.278;2022-07-01T08:32:55;4.22;;;1.55;;
56718;SDS011;42597;40.636;0.278;2022-07-01T08:35:20;2.70;;;1.40;;
56718;SDS011;42597;40.636;0.278;2022-07-01T08:37:46;5.78;;;1.73;;
56718;SDS011;42597;40.636;0.278;2022-07-01T08:40:11;5.18;;;1.85;;
56718;SDS011;42597;40.636;0.278;2022-07-01T08:42:37;7.75;;;2.33;;
56718;SDS011;42597;40.636;0.278;2022-07-01T08:45:02;2.97;;;1.30;;
56718;SDS011;42597;40.636;0.278;2022-07-01T08:47:28;4.25;;;1.35;;
56718;SDS011;42597;40.636;0.278;2022-07-01T08:49:54;4.28;;;1.60;;
56718;SDS011;42597;40.636;0.278;2022-07-01T08:52:19;3.75;;;1.52;;
56718;SDS011;42597;40.636;0.278;2022-07-01T08:54:45;2.65;;;1.48;;
56718;SDS011;42597;40.636;0.278;2022-07-01T08:57:10;2.15;;;1.25;;
56718;SDS011;42597;40.636;0.278;2022-07-01T08:59:36;5.47;;;1.63;;
56718;SDS011;42597;40.636;0.278;2022-07-01T09:02:03;2.85;;;1.23;;
56718;SDS011;42597;40.636;0.278;2022-07-01T09:04:30;3.78;;;2.67;;
56718;SDS011;42597;40.636;0.278;2022-07-01T09:07:04;8.70;;;3.65;;
56718;SDS011;42597;40.636;0.278;2022-07-01T09:09:38;2.38;;;1.77;;
56718;SDS011;42597;40.636;0.278;2022-07-01T09:12:05;4.45;;;1.65;;
56718;SDS011;42597;40.636;0.278;2022-07-01T09:14:31;3.53;;;2.00;;
56718;SDS011;42597;40.636;0.278;2022-07-01T09:16:59;6.43;;;1.80;;
56718;SDS011;42597;40.636;0.278;2022-07-01T09:19:29;5.28;;;2.22;;
56718;SDS011;42597;40.636;0.278;2022-07-01T09:21:58;2.95;;;1.70;;
56718;SDS011;42597;40.636;0.278;2022-07-01T09:24:30;4.68;;;2.20;;
56718;SDS011;42597;40.636;0.278;2022-07-01T09:27:00;7.30;;;2.47;;
56718;SDS011;42597;40.636;0.278;2022-07-01T09:29:35;4.80;;;1.75;;
56718;SDS011;42597;40.636;0.278;2022-07-01T09:32:03;5.22;;;1.80;;
56718;SDS011;42597;40.636;0.278;2022-07-01T09:34:55;4.53;;;1.77;;
56718;SDS011;42597;40.636;0.278;2022-07-01T09:37:20;3.33;;;1.30;;
56718;SDS011;42597;40.636;0.278;2022-07-01T09:39:51;3.22;;;1.73;;
56718;SDS011;42597;40.636;0.278;2022-07-01T09:42:18;3.45;;;1.55;;
56718;SDS011;42597;40.636;0.278;2022-07-01T09:45:18;7.20;;;1.70;;
56718;SDS011;42597;40.636;0.278;2022-07-01T09:47:39;2.88;;;1.33;;
56718;SDS011;42597;40.636;0.278;2022-07-01T09:50:06;3.17;;;1.30;;
56718;SDS011;42597;40.636;0.278;2022-07-01T09:52:33;2.30;;;1.45;;
56718;SDS011;42597;40.636;0.278;2022-07-01T09:55:00;2.90;;;1.65;;
56718;SDS011;42597;40.636;0.278;2022-07-01T09:57:25;4.50;;;2.30;;
56718;SDS011;42597;40.636;0.278;2022-07-01T09:59:52;3.45;;;1.98;;
56718;SDS011;42597;40.636;0.278;2022-07-01T10:02:18;6.22;;;2.20;;
56718;SDS011;42597;40.636;0.278;2022-07-01T10:04:54;7.63;;;2.63;;
56718;SDS011;42597;40.636;0.278;2022-07-01T10:13:12;5.30;;;2.30;;
56718;SDS011;42597;40.636;0.278;2022-07-01T10:15:40;3.45;;;2.08;;
56718;SDS011;42597;40.636;0.278;2022-07-01T10:18:18;2.97;;;2.13;;
56718;SDS011;42597;40.636;0.278;2022-07-01T10:20:47;3.65;;;2.08;;
56718;SDS011;42597;40.636;0.278;2022-07-01T10:23:13;4.85;;;2.30;;
56718;SDS011;42597;40.636;0.278;2022-07-01T10:25:40;5.97;;;2.30;;
56718;SDS011;42597;40.636;0.278;2022-07-01T10:30:53;5.45;;;2.13;;
56718;SDS011;42597;40.636;0.278;2022-07-01T10:35:53;3.25;;;1.85;;
56718;SDS011;42597;40.636;0.278;2022-07-01T10:38:19;4.07;;;1.60;;
56718;SDS011;42597;40.636;0.278;2022-07-01T10:40:45;3.20;;;1.75;;
56718;SDS011;42597;40.636;0.278;2022-07-01T10:43:17;9.48;;;2.28;;
56718;SDS011;42597;40.636;0.278;2022-07-01T10:45:57;4.15;;;1.98;;
56718;SDS011;42597;40.636;0.278;2022-07-01T10:48:23;5.90;;;2.20;;
56718;SDS011;42597;40.636;0.278;2022-07-01T10:50:50;2.65;;;1.90;;
56718;SDS011;42597;40.636;0.278;2022-07-01T10:53:16;7.15;;;1.40;;
56718;SDS011;42597;40.636;0.278;2022-07-01T10:55:47;2.97;;;1.55;;
56718;SDS011;42597;40.636;0.278;2022-07-01T10:58:15;4.57;;;2.22;;
56718;SDS011;42597;40.636;0.278;2022-07-01T11:00:48;4.07;;;1.80;;
56718;SDS011;42597;40.636;0.278;2022-07-01T11:03:20;3.42;;;1.65;;
56718;SDS011;42597;40.636;0.278;2022-07-01T11:05:48;10.82;;;2.20;;
56718;SDS011;42597;40.636;0.278;2022-07-01T11:08:16;8.48;;;2.88;;
56718;SDS011;42597;40.636;0.278;2022-07-01T11:10:42;4.05;;;1.92;;
56718;SDS011;42597;40.636;0.278;2022-07-01T11:13:08;3.17;;;1.48;;
56718;SDS011;42597;40.636;0.278;2022-07-01T11:15:39;8.43;;;2.17;;
56718;SDS011;42597;40.636;0.278;2022-07-01T11:18:04;5.93;;;1.75;;
56718;SDS011;42597;40.636;0.278;2022-07-01T11:20:31;9.80;;;2.58;;
56718;SDS011;42597;40.636;0.278;2022-07-01T11:22:57;2.97;;;1.48;;
56718;SDS011;42597;40.636;0.278;2022-07-01T11:25:23;3.78;;;1.80;;
56718;SDS011;42597;40.636;0.278;2022-07-01T11:27:49;9.90;;;2.47;;
56718;SDS011;42597;40.636;0.278;2022-07-01T11:30:17;6.10;;;2.45;;
56718;SDS011;42597;40.636;0.278;2022-07-01T11:32:48;5.13;;;2.47;;
56718;SDS011;42597;40.636;0.278;2022-07-01T11:35:16;7.72;;;2.70;;
56718;SDS011;42597;40.636;0.278;2022-07-01T11:38:09;7.38;;;3.22;;
56718;SDS011;42597;40.636;0.278;2022-07-01T11:41:05;2.55;;;1.42;;
56718;SDS011;42597;40.636;0.278;2022-07-01T11:43:51;5.22;;;1.90;;
56718;SDS011;42597;40.636;0.278;2022-07-01T11:46:17;9.38;;;2.70;;
56718;SDS011;42597;40.636;0.278;2022-07-01T11:51:15;7.93;;;2.33;;
56718;SDS011;42597;40.636;0.278;2022-07-01T11:53:48;3.70;;;1.50;;
56718;SDS011;42597;40.636;0.278;2022-07-01T11:56:17;7.10;;;2.42;;
56718;SDS011;42597;40.636;0.278;2022-07-01T11:58:52;6.38;;;1.90;;
56718;SDS011;42597;40.636;0.278;2022-07-01T12:03:51;6.15;;;2.65;;
56718;SDS011;42597;40.636;0.278;2022-07-01T12:06:17;6.03;;;2.70;;
56718;SDS011;42597;40.636;0.278;2022-07-01T12:08:45;7.43;;;2.78;;
56718;SDS011;42597;40.636;0.278;2022-07-01T12:11:12;9.20;;;2.58;;
56718;SDS011;42597;40.636;0.278;2022-07-01T12:13:38;13.73;;;3.33;;
56718;SDS011;42597;40.636;0.278;2022-07-01T12:16:08;7.80;;;2.70;;
56718;SDS011;42597;40.636;0.278;2022-07-01T12:18:34;7.43;;;3.40;;
56718;SDS011;42597;40.636;0.278;2022-07-01T12:21:00;7.20;;;3.05;;
56718;SDS011;42597;40.636;0.278;2022-07-01T12:23:25;7.97;;;3.08;;
56718;SDS011;42597;40.636;0.278;2022-07-01T12:25:51;5.20;;;2.40;;
56718;SDS011;42597;40.636;0.278;2022-07-01T12:28:36;7.88;;;3.90;;
56718;SDS011;42597;40.636;0.278;2022-07-01T12:33:36;10.25;;;2.95;;
56718;SDS011;42597;40.636;0.278;2022-07-01T12:36:03;10.10;;;2.72;;
56718;SDS011;42597;40.636;0.278;2022-07-01T12:38:30;14.68;;;3.35;;
56718;SDS011;42597;40.636;0.278;2022-07-01T12:40:57;9.32;;;3.95;;
56718;SDS011;42597;40.636;0.278;2022-07-01T12:43:30;9.13;;;2.50;;
56718;SDS011;42597;40.636;0.278;2022-07-01T12:46:01;7.72;;;2.80;;
56718;SDS011;42597;40.636;0.278;2022-07-01T12:48:27;11.13;;;2.95;;
56718;SDS011;42597;40.636;0.278;2022-07-01T12:50:54;6.90;;;2.92;;
56718;SDS011;42597;40.636;0.278;2022-07-01T12:53:23;7.97;;;2.63;;
56718;SDS011;42597;40.636;0.278;2022-07-01T12:55:53;6.38;;;2.50;;
56718;SDS011;42597;40.636;0.278;2022-07-01T12:58:25;6.75;;;2.75;;
56718;SDS011;42597;40.636;0.278;2022-07-01T13:00:55;5.63;;;2.88;;
56718;SDS011;42597;40.636;0.278;2022-07-01T13:03:26;4.90;;;2.28;;
56718;SDS011;42597;40.636;0.278;2022-07-01T13:05:53;6.30;;;2.78;;
56718;SDS011;42597;40.636;0.278;2022-07-01T13:08:20;9.10;;;3.65;;
56718;SDS011;42597;40.636;0.278;2022-07-01T13:10:46;9.43;;;2.92;;
56718;SDS011;42597;40.636;0.278;2022-07-01T13:13:13;13.35;;;3.15;;
56718;SDS011;42597;40.636;0.278;2022-07-01T13:15:42;6.75;;;2.53;;
56718;SDS011;42597;40.636;0.278;2022-07-01T13:18:07;11.77;;;3.17;;
56718;SDS011;42597;40.636;0.278;2022-07-01T13:20:33;9.57;;;2.88;;
56718;SDS011;42597;40.636;0.278;2022-07-01T13:22:59;8.95;;;3.50;;
56718;SDS011;42597;40.636;0.278;2022-07-01T13:25:25;9.20;;;2.80;;
56718;SDS011;42597;40.636;0.278;2022-07-01T13:27:51;6.30;;;2.53;;
56718;SDS011;42597;40.636;0.278;2022-07-01T13:30:17;9.13;;;2.72;;
56718;SDS011;42597;40.636;0.278;2022-07-01T13:32:43;9.00;;;2.47;;
56718;SDS011;42597;40.636;0.278;2022-07-01T13:35:10;4.07;;;1.83;;
56718;SDS011;42597;40.636;0.278;2022-07-01T13:37:37;8.25;;;2.58;;
56718;SDS011;42597;40.636;0.278;2022-07-01T13:40:04;8.23;;;2.97;;
56718;SDS011;42597;40.636;0.278;2022-07-01T13:42:30;6.20;;;2.85;;
56718;SDS011;42597;40.636;0.278;2022-07-01T13:44:56;10.05;;;2.75;;
56718;SDS011;42597;40.636;0.278;2022-07-01T13:47:22;15.05;;;3.28;;
56718;SDS011;42597;40.636;0.278;2022-07-01T13:49:48;4.35;;;1.65;;
56718;SDS011;42597;40.636;0.278;2022-07-01T13:52:14;13.63;;;3.10;;
56718;SDS011;42597;40.636;0.278;2022-07-01T13:54:40;7.00;;;3.15;;
56718;SDS011;42597;40.636;0.278;2022-07-01T13:57:06;7.70;;;2.92;;
56718;SDS011;42597;40.636;0.278;2022-07-01T13:59:32;11.57;;;3.28;;
56718;SDS011;42597;40.636;0.278;2022-07-01T14:01:57;9.30;;;3.15;;
56718;SDS011;42597;40.636;0.278;2022-07-01T14:04:23;10.52;;;3.63;;
56718;SDS011;42597;40.636;0.278;2022-07-01T14:06:49;7.97;;;3.20;;
56718;SDS011;42597;40.636;0.278;2022-07-01T14:09:15;10.68;;;3.63;;
56718;SDS011;42597;40.636;0.278;2022-07-01T14:11:40;7.85;;;2.15;;
56718;SDS011;42597;40.636;0.278;2022-07-01T14:14:06;6.05;;;2.35;;
56718;SDS011;42597;40.636;0.278;2022-07-01T14:16:31;6.55;;;2.75;;
56718;SDS011;42597;40.636;0.278;2022-07-01T14:18:57;4.85;;;2.63;;
56718;SDS011;42597;40.636;0.278;2022-07-01T14:21:23;7.35;;;2.90;;
56718;SDS011;42597;40.636;0.278;2022-07-01T14:23:49;4.22;;;2.40;;
56718;SDS011;42597;40.636;0.278;2022-07-01T14:26:15;7.90;;;2.10;;
56718;SDS011;42597;40.636;0.278;2022-07-01T14:28:41;8.98;;;1.98;;
56718;SDS011;42597;40.636;0.278;2022-07-01T14:31:06;10.45;;;2.65;;
56718;SDS011;42597;40.636;0.278;2022-07-01T14:33:32;5.70;;;2.33;;
56718;SDS011;42597;40.636;0.278;2022-07-01T14:35:58;9.40;;;3.22;;
56718;SDS011;42597;40.636;0.278;2022-07-01T14:38:24;12.00;;;3.38;;
56718;SDS011;42597;40.636;0.278;2022-07-01T14:40:49;10.32;;;2.53;;
56718;SDS011;42597;40.636;0.278;2022-07-01T14:43:15;9.73;;;2.58;;
56718;SDS011;42597;40.636;0.278;2022-07-01T14:45:40;7.00;;;2.35;;
56718;SDS011;42597;40.636;0.278;2022-07-01T14:48:07;5.25;;;2.17;;
56718;SDS011;42597;40.636;0.278;2022-07-01T14:50:33;10.88;;;2.60;;
56718;SDS011;42597;40.636;0.278;2022-07-01T14:52:59;6.97;;;2.65;;
56718;SDS011;42597;40.636;0.278;2022-07-01T14:55:25;12.10;;;3.10;;
56718;SDS011;42597;40.636;0.278;2022-07-01T14:57:53;9.48;;;2.75;;
56718;SDS011;42597;40.636;0.278;2022-07-01T15:00:19;11.50;;;3.03;;
56718;SDS011;42597;40.636;0.278;2022-07-01T15:02:44;7.20;;;2.45;;
56718;SDS011;42597;40.636;0.278;2022-07-01T15:05:10;6.20;;;2.20;;
56718;SDS011;42597;40.636;0.278;2022-07-01T15:07:36;9.40;;;3.55;;
56718;SDS011;42597;40.636;0.278;2022-07-01T15:10:02;7.68;;;2.40;;
56718;SDS011;42597;40.636;0.278;2022-07-01T15:12:29;8.52;;;2.40;;
56718;SDS011;42597;40.636;0.278;2022-07-01T15:14:55;7.68;;;2.05;;